Domov               UVHVVR             MKGP            O straneh              
ZDRAVSTVENO VARSTVO RASTLIN
  MREŽA AGROMET. POSTAJ
 ► PROGNOSTIČNA OBVESTILA
AGROMETEOROLOŠKI PODATKI -
ARSO
OBVLADOVANJE TVEGANJ ZARADI
NEUGODNIH VREMENSKIH RAZMER
  ► NARAVNE NESREČE
  ► SUŠA/MOČA
  ► NAMAKANJE
  ► ŽLED (gozdarstvo)
KARTOGRAFSKI PRIKAZI
SPLETNE POVEZAVE
PROJEKTI IN PUBLIKACIJE

AGROMETEOROLOŠKA MREŽA: VREMENSKE POSTAJE IN FENOLOŠKA OPAZOVANJA

Pregled podatkov za lokacijo Pradisiol, meteorološka postaja 861649

Pregled senzorjev na lokaciji

ID Ime Zadnja
vrednost
Datum
zadnje
spremembe
Tip
senzorja
4074 Temperatura 2 m ( °C) 15,63 °C 19.8.2017 05:00 50YA
4075 Relativna vlaga 2 m (% RH) 94,52 % RH 19.8.2017 05:00 50YA
4076 Omočenost lista (U) 10 U 19.8.2017 05:00 A730WET
4077 Padavine 0.2 mm (mm) 0 mm 19.8.2017 05:00 Rain-O-Matic

Pregled podatkov zadnjih 24 ur

Zap.
št.
Datum in čas Pradisiol
Omočenost
lista
Padavine
0.2
mm
Relativna
vlaga
2
m
Temperatura
2
m
0 19.8.2017 04:00 10 0 94,52 15,63
1 19.8.2017 03:30 10 0 94,11 16,03
2 19.8.2017 03:00 10 0 94,76 16,2
3 19.8.2017 02:30 10 0 95,09 16,01
4 19.8.2017 02:00 10 0 94,91 16,08
5 19.8.2017 01:30 10 0 95,06 16,25
6 19.8.2017 01:00 10 0 94,8 16,19
7 19.8.2017 00:30 10 0 94,12 16,26
8 19.8.2017 00:00 10 0 93,64 16,58
9 18.8.2017 23:30 10 0 93,07 16,97
10 18.8.2017 23:00 10 0 92,5 17,57
11 18.8.2017 22:30 10 0 91,73 18,17
12 18.8.2017 22:00 10 0 90,27 18,77
13 18.8.2017 21:30 10 0 89,2 19,6
14 18.8.2017 21:00 10 0 86,9 20,69
15 18.8.2017 20:30 10 0 83,83 22,07
16 18.8.2017 20:00 6 0 79,82 23,31
17 18.8.2017 19:30 1 0 72,99 25,57
18 18.8.2017 19:00 0 0 66,66 27,82
19 18.8.2017 18:30 0 0 62,27 29,49
20 18.8.2017 18:00 0 0 49,01 31,77
21 18.8.2017 17:30 0 0 51,37 31,82
22 18.8.2017 17:00 0 0 54,4 31,65
23 18.8.2017 16:30 0 0 45 33,08
24 18.8.2017 16:00 0 0 48,07 32,99
25 18.8.2017 15:30 0 0 48,88 32,43
26 18.8.2017 15:00 0 0 42,46 32,66
27 18.8.2017 14:30 0 0 44,57 32,44
28 18.8.2017 14:00 0 0 42,11 32,91
29 18.8.2017 13:30 0 0 42,54 32,44
30 18.8.2017 13:00 0 0 41,84 32,47
31 18.8.2017 12:30 0 0 40,23 32,48
32 18.8.2017 12:00 0 0 36,42 32,59
33 18.8.2017 11:30 0 0 37,09 32,48
34 18.8.2017 11:00 0 0 39,02 32,35
35 18.8.2017 10:30 0 0 39,49 32,09
36 18.8.2017 10:00 0 0 40,12 32,09
37 18.8.2017 09:30 0 0 40 32,74
38 18.8.2017 09:00 0 0 41,7 31,58
39 18.8.2017 08:30 0 0 48,18 29,3
40 18.8.2017 08:00 0 0 59,69 26,16
41 18.8.2017 07:30 0 0 66,46 24,02
42 18.8.2017 07:00 5 0 80,59 20,51
43 18.8.2017 06:30 10 0 94 17,24
44 18.8.2017 06:00 10 0 96,22 15,86
© 2011 Ministrstvo za kmetijstvo, gozdarstvo in prehrano. Vse pravice pridržane.